createdAt,value
2022-11-21T00:01:35.012Z,86.84
2022-11-21T00:06:34.038Z,86.98
2022-11-21T00:09:00.788Z,87.16
2022-11-21T00:11:27.453Z,87.02
2022-11-21T00:13:54.207Z,88.91
2022-11-21T00:16:20.926Z,88.95
2022-11-21T00:21:20.780Z,88.91
2022-11-21T00:23:48.057Z,89.13
2022-11-21T00:26:16.460Z,90.06
2022-11-21T00:28:43.074Z,91.37
2022-11-21T00:31:09.923Z,92.17
2022-11-21T00:33:37.246Z,91.41
2022-11-21T00:36:10.472Z,90.71
2022-11-21T00:38:37.866Z,90.36
2022-11-21T00:41:05.232Z,91.67
2022-11-21T00:43:32.303Z,92.19
2022-11-21T00:46:01.551Z,92.20
2022-11-21T00:48:29.591Z,92.03
2022-11-21T00:50:56.658Z,91.80
2022-11-21T00:53:23.303Z,90.93
2022-11-21T00:55:49.949Z,90.59
2022-11-21T00:58:16.673Z,91.68
2022-11-21T01:00:43.388Z,90.71
2022-11-21T01:03:10.071Z,89.87
2022-11-21T01:05:36.720Z,89.65
2022-11-21T01:08:03.428Z,89.58
2022-11-21T01:10:30.261Z,89.74
2022-11-21T01:12:57.006Z,89.00
2022-11-21T01:15:23.799Z,89.29
2022-11-21T01:17:50.403Z,88.20
2022-11-21T01:20:17.151Z,87.51
2022-11-21T01:22:43.879Z,87.91
2022-11-21T01:27:41.836Z,88.87
2022-11-21T01:30:08.922Z,88.02
2022-11-21T01:32:35.599Z,88.50
2022-11-21T01:35:02.234Z,88.74
2022-11-21T01:37:29.036Z,90.04
2022-11-21T01:39:55.752Z,90.10
2022-11-21T01:42:22.470Z,91.34
2022-11-21T01:44:51.820Z,93.36
2022-11-21T01:47:18.648Z,93.80
2022-11-21T01:49:47.102Z,94.60
2022-11-21T01:52:28.369Z,95.23
2022-11-21T01:55:03.087Z,95.25
2022-11-21T01:57:41.233Z,94.15
2022-11-21T02:00:14.565Z,97.38
2022-11-21T02:02:48.482Z,99.10
2022-11-21T02:05:22.629Z,98.07
2022-11-21T02:07:50.347Z,99.10
2022-11-21T02:10:17.308Z,99.24
2022-11-21T02:12:50.040Z,100.00
2022-11-21T02:15:18.688Z,100.00
2022-11-21T02:17:45.503Z,100.00
2022-11-21T02:20:17.811Z,100.00
2022-11-21T02:23:03.094Z,100.00
2022-11-21T02:25:32.541Z,100.00
2022-11-21T02:28:02.990Z,100.00
2022-11-21T02:30:32.085Z,100.00
2022-11-21T02:32:59.284Z,100.00
2022-11-21T02:35:26.102Z,100.00
2022-11-21T02:38:24.201Z,100.00
2022-11-21T02:40:58.684Z,99.14
2022-11-21T02:43:48.012Z,99.47
2022-11-21T02:46:14.617Z,98.84
2022-11-21T02:48:41.644Z,99.15
2022-11-21T02:53:42.657Z,97.91
2022-11-21T02:56:09.445Z,97.54
2022-11-21T02:58:36.443Z,98.13
2022-11-21T03:01:03.189Z,98.49
2022-11-21T03:03:29.926Z,98.73
2022-11-21T03:05:57.044Z,98.29
2022-11-21T03:08:23.706Z,97.94
2022-11-21T03:10:50.426Z,97.28
2022-11-21T03:13:17.095Z,96.97
2022-11-21T03:15:43.739Z,97.18
2022-11-21T03:18:10.396Z,97.70
2022-11-21T03:20:37.085Z,97.21
2022-11-21T03:23:04.367Z,97.13
2022-11-21T03:25:31.493Z,96.95
2022-11-21T03:27:58.204Z,97.01
2022-11-21T03:30:26.455Z,96.03
2022-11-21T03:32:56.180Z,96.76
2022-11-21T03:35:23.012Z,95.05
2022-11-21T03:37:49.804Z,96.14
2022-11-21T03:40:16.585Z,96.54
2022-11-21T03:42:43.374Z,97.01
2022-11-21T03:45:10.203Z,95.95
2022-11-21T03:47:36.893Z,95.73
2022-11-21T03:50:03.896Z,96.17
2022-11-21T03:52:30.625Z,95.95
2022-11-21T03:54:57.261Z,96.85
2022-11-21T03:57:23.980Z,96.68
2022-11-21T03:59:50.620Z,95.95
2022-11-21T04:02:17.336Z,95.49
2022-11-21T04:04:43.982Z,95.37
2022-11-21T04:07:10.705Z,95.68
2022-11-21T04:09:37.427Z,96.27
2022-11-21T04:12:07.766Z,96.64
2022-11-21T04:14:35.064Z,96.57
2022-11-21T04:17:01.901Z,95.59
2022-11-21T04:22:07.178Z,95.42
2022-11-21T04:24:33.847Z,94.42
2022-11-21T04:27:00.463Z,95.73
2022-11-21T04:29:27.132Z,96.44
2022-11-21T04:31:53.784Z,96.12
2022-11-21T04:34:20.419Z,96.30
2022-11-21T04:36:47.112Z,95.71
2022-11-21T04:39:13.876Z,95.69
2022-11-21T04:41:40.548Z,95.79
2022-11-21T04:44:07.327Z,95.86
2022-11-21T04:46:34.016Z,97.49
2022-11-21T04:49:00.747Z,97.02
2022-11-21T04:51:27.425Z,97.96
2022-11-21T04:53:54.065Z,97.59
2022-11-21T04:56:20.687Z,97.79
2022-11-21T04:58:47.429Z,97.55
2022-11-21T05:01:14.128Z,97.75
2022-11-21T05:03:40.848Z,98.11
2022-11-21T05:06:07.555Z,98.73
2022-11-21T05:08:34.190Z,100.00
2022-11-21T05:11:19.540Z,97.85
2022-11-21T05:13:46.173Z,97.87
2022-11-21T05:16:12.830Z,98.96
2022-11-21T05:18:39.486Z,98.56
2022-11-21T05:21:06.173Z,98.06
2022-11-21T05:26:06.380Z,98.54
2022-11-21T05:28:33.002Z,97.75
2022-11-21T05:30:59.632Z,97.80
2022-11-21T05:33:26.280Z,96.85
2022-11-21T05:35:52.906Z,98.33
2022-11-21T05:38:19.541Z,96.65
2022-11-21T05:40:46.179Z,96.71
2022-11-21T05:43:31.341Z,96.90
2022-11-21T05:45:57.962Z,97.79
2022-11-21T05:48:24.916Z,100.00
2022-11-21T05:50:51.554Z,96.59
2022-11-21T05:53:18.610Z,96.24
2022-11-21T05:55:45.512Z,98.16
2022-11-21T05:58:12.549Z,96.45
2022-11-21T06:00:39.351Z,97.22
2022-11-21T06:03:25.420Z,97.44
2022-11-21T06:05:52.146Z,97.07
2022-11-21T06:08:19.033Z,96.79
2022-11-21T06:10:45.762Z,97.18
2022-11-21T06:13:24.377Z,100.00
2022-11-21T06:16:06.338Z,93.43
2022-11-21T06:18:35.872Z,90.50
2022-11-21T06:21:04.949Z,89.54
2022-11-21T06:23:31.806Z,90.81
2022-11-21T06:26:00.195Z,91.76
2022-11-21T06:31:05.510Z,95.09
2022-11-21T06:33:33.205Z,94.21
2022-11-21T06:36:11.088Z,95.36
2022-11-21T06:38:37.992Z,95.28
2022-11-21T06:41:11.718Z,95.00
2022-11-21T06:43:39.296Z,95.30
2022-11-21T06:46:06.176Z,95.58
2022-11-21T06:48:34.028Z,94.82
2022-11-21T06:51:21.909Z,95.30
2022-11-21T06:53:56.559Z,94.67
2022-11-21T06:58:59.638Z,95.64
2022-11-21T07:01:26.995Z,94.52
2022-11-21T07:03:54.527Z,95.12
2022-11-21T07:06:21.641Z,94.47
2022-11-21T07:09:00.051Z,93.76
2022-11-21T07:11:35.719Z,93.77
2022-11-21T07:14:07.720Z,93.85
2022-11-21T07:16:35.770Z,94.40
2022-11-21T07:19:02.388Z,94.50
2022-11-21T07:21:29.027Z,95.10
2022-11-21T07:23:55.688Z,94.44
2022-11-21T07:26:22.357Z,94.45
2022-11-21T07:28:48.993Z,93.95
2022-11-21T07:31:15.619Z,93.35
2022-11-21T07:33:46.957Z,94.29
2022-11-21T07:36:13.802Z,94.20
2022-11-21T07:38:41.909Z,93.84
2022-11-21T07:41:09.342Z,93.64
2022-11-21T07:43:35.973Z,94.10
2022-11-21T07:46:02.698Z,94.14
2022-11-21T07:48:29.413Z,94.21
2022-11-21T07:50:56.069Z,93.64
2022-11-21T07:53:22.721Z,94.16
2022-11-21T07:55:49.424Z,93.82
2022-11-21T07:58:16.983Z,92.79
2022-11-21T08:00:43.836Z,92.93
2022-11-21T08:03:12.611Z,94.13
2022-11-21T08:05:41.729Z,93.89
2022-11-21T08:08:09.546Z,91.43
2022-11-21T08:10:44.537Z,90.96
2022-11-21T08:15:43.438Z,88.85
2022-11-21T08:18:11.383Z,86.94
2022-11-21T08:20:38.340Z,86.28
2022-11-21T08:23:06.303Z,85.10
2022-11-21T08:25:42.977Z,85.22
2022-11-21T08:28:11.807Z,84.26
2022-11-21T08:30:39.024Z,81.85
2022-11-21T08:33:06.093Z,80.69
2022-11-21T08:35:32.845Z,82.22
2022-11-21T08:38:01.063Z,82.71
2022-11-21T08:40:30.116Z,81.14
2022-11-21T08:43:09.721Z,81.18
2022-11-21T08:45:37.967Z,79.55
2022-11-21T08:48:05.005Z,77.71
2022-11-21T08:50:32.270Z,76.24
2022-11-21T08:55:34.020Z,76.50
2022-11-21T08:58:00.712Z,75.65
2022-11-21T09:00:27.615Z,77.16
2022-11-21T09:02:54.372Z,78.70
2022-11-21T09:05:21.195Z,77.70
2022-11-21T09:10:25.591Z,79.17
2022-11-21T09:12:52.331Z,78.65
2022-11-21T09:15:37.316Z,80.27
2022-11-21T09:18:05.082Z,79.74
2022-11-21T09:20:34.506Z,79.58
2022-11-21T09:23:09.527Z,81.00
2022-11-21T09:28:10.815Z,80.15
2022-11-21T09:30:37.575Z,80.99
2022-11-21T09:33:06.630Z,81.30
2022-11-21T09:35:33.273Z,82.75
2022-11-21T09:38:00.397Z,83.06
2022-11-21T09:40:29.876Z,83.62
2022-11-21T09:43:30.391Z,83.52
2022-11-21T09:46:13.789Z,84.78
2022-11-21T09:48:58.496Z,83.34
2022-11-21T09:51:27.365Z,81.82
2022-11-21T09:54:05.830Z,81.22
2022-11-21T09:56:38.263Z,80.81
2022-11-21T09:59:19.949Z,79.38
2022-11-21T10:01:47.172Z,79.51
2022-11-21T10:04:13.930Z,81.16
2022-11-21T10:07:06.969Z,80.45
2022-11-21T10:10:04.812Z,82.05
2022-11-21T10:12:48.569Z,80.11
2022-11-21T10:15:29.526Z,78.60
2022-11-21T10:18:38.555Z,77.51
2022-11-21T10:21:28.328Z,79.08
2022-11-21T10:24:22.356Z,76.31
2022-11-21T10:27:00.326Z,75.88
2022-11-21T10:29:39.201Z,76.82
2022-11-21T10:34:59.351Z,75.50
2022-11-21T10:37:35.525Z,75.06
2022-11-21T10:40:13.936Z,73.94
2022-11-21T10:42:51.741Z,74.86
2022-11-21T10:45:19.553Z,73.41
2022-11-21T10:47:48.586Z,73.48
2022-11-21T10:50:47.223Z,72.49
2022-11-21T10:56:14.660Z,72.46
2022-11-21T10:58:43.700Z,72.48
2022-11-21T11:01:23.924Z,70.07
2022-11-21T11:04:27.343Z,68.75
2022-11-21T11:06:56.418Z,70.44
2022-11-21T11:09:34.073Z,68.87
2022-11-21T11:12:19.038Z,67.35
2022-11-21T11:14:51.916Z,68.50
2022-11-21T11:17:28.312Z,69.19
2022-11-21T11:20:32.990Z,71.87
2022-11-21T11:22:59.679Z,77.97
2022-11-21T11:25:26.483Z,82.29
2022-11-21T11:27:53.194Z,84.63
2022-11-21T11:30:20.011Z,85.57
2022-11-21T11:32:46.612Z,86.19
2022-11-21T11:35:17.344Z,85.86
2022-11-21T11:38:00.868Z,86.76
2022-11-21T11:40:38.399Z,87.96
2022-11-21T11:43:40.081Z,85.48
2022-11-21T11:46:37.255Z,85.39
2022-11-21T11:49:20.779Z,86.39
2022-11-21T11:51:57.289Z,86.08
2022-11-21T11:54:29.625Z,86.45
2022-11-21T11:56:57.762Z,86.61
2022-11-21T11:59:31.917Z,83.88
2022-11-21T12:02:11.843Z,77.03
2022-11-21T12:04:51.165Z,80.32
2022-11-21T12:10:24.520Z,77.83
2022-11-21T12:13:04.908Z,76.59
2022-11-21T12:15:50.064Z,78.71
2022-11-21T12:18:22.409Z,79.00
2022-11-21T12:21:14.707Z,79.36
2022-11-21T12:23:47.426Z,76.37
2022-11-21T12:26:20.865Z,75.94
2022-11-21T12:29:11.871Z,77.20
2022-11-21T12:32:08.825Z,73.60
2022-11-21T12:35:12.231Z,72.95
2022-11-21T12:37:53.737Z,74.97
2022-11-21T12:40:26.737Z,70.89
2022-11-21T12:43:30.724Z,72.11
2022-11-21T12:46:16.274Z,70.33
2022-11-21T12:49:39.065Z,67.45
2022-11-21T12:55:37.966Z,67.26
2022-11-21T12:58:09.763Z,66.94
2022-11-21T13:04:03.739Z,61.73
2022-11-21T13:06:34.448Z,62.94
2022-11-21T13:09:03.144Z,60.62
2022-11-21T13:12:00.044Z,60.91
2022-11-21T13:14:52.750Z,61.30
2022-11-21T13:17:25.293Z,61.17
2022-11-21T13:20:02.371Z,61.25
2022-11-21T13:22:54.293Z,61.27
2022-11-21T13:25:33.246Z,62.54
2022-11-21T13:28:18.148Z,63.18
2022-11-21T13:30:49.186Z,61.27
2022-11-21T13:33:36.228Z,59.25
2022-11-21T13:36:06.656Z,61.28
2022-11-21T13:38:53.850Z,61.25
2022-11-21T13:41:54.348Z,62.72
2022-11-21T13:44:29.815Z,63.31
2022-11-21T13:47:12.536Z,63.60
2022-11-21T13:49:41.961Z,62.95
2022-11-21T13:52:55.907Z,61.19
2022-11-21T13:55:31.573Z,61.57
2022-11-21T13:58:03.925Z,62.08
2022-11-21T14:01:04.281Z,63.51
2022-11-21T14:03:40.409Z,62.80
2022-11-21T14:06:15.741Z,67.05
2022-11-21T14:08:43.936Z,63.59
2022-11-21T14:11:34.726Z,64.83
2022-11-21T14:14:02.228Z,65.63
2022-11-21T14:16:37.104Z,63.04
2022-11-21T14:19:04.255Z,63.58
2022-11-21T14:21:33.052Z,63.21
2022-11-21T14:24:05.548Z,63.71
2022-11-21T14:26:40.579Z,67.45
2022-11-21T14:29:40.278Z,67.27
2022-11-21T14:32:14.478Z,66.36
2022-11-21T14:34:41.122Z,65.11
2022-11-21T14:37:08.436Z,63.85
2022-11-21T14:39:44.065Z,65.09
2022-11-21T14:42:15.179Z,66.64
2022-11-21T14:44:42.104Z,69.70
2022-11-21T14:47:21.571Z,71.77
2022-11-21T14:49:55.190Z,73.11
2022-11-21T14:52:27.027Z,75.15
2022-11-21T14:55:28.583Z,75.82
2022-11-21T14:57:47.284Z,75.37
2022-11-21T15:03:18.965Z,76.76
2022-11-21T15:06:02.197Z,72.54
2022-11-21T15:11:22.949Z,74.94
2022-11-21T15:16:26.247Z,77.84
2022-11-21T15:18:52.966Z,79.33
2022-11-21T15:21:19.717Z,75.38
2022-11-21T15:23:47.187Z,72.08
2022-11-21T15:26:31.820Z,72.72
2022-11-21T15:31:33.631Z,72.55
2022-11-21T15:34:33.842Z,72.56
2022-11-21T15:37:04.854Z,73.98
2022-11-21T15:39:33.050Z,74.78
2022-11-21T15:42:33.566Z,74.80
2022-11-21T15:45:02.315Z,74.32
2022-11-21T15:50:00.448Z,75.29
2022-11-21T15:52:27.130Z,75.55
2022-11-21T15:54:53.834Z,74.71
2022-11-21T15:57:22.296Z,76.11
2022-11-21T15:59:49.685Z,75.40
2022-11-21T16:02:16.460Z,76.06
2022-11-21T16:04:43.214Z,75.37
2022-11-21T16:07:09.920Z,75.06
2022-11-21T16:09:37.558Z,74.92
2022-11-21T16:12:04.384Z,76.27
2022-11-21T16:14:31.071Z,75.39
2022-11-21T16:16:57.755Z,77.25
2022-11-21T16:19:26.031Z,76.94
2022-11-21T16:21:53.793Z,76.17
2022-11-21T16:24:20.539Z,77.11
2022-11-21T16:26:47.270Z,75.78
2022-11-21T16:29:14.307Z,77.09
2022-11-21T16:31:40.965Z,76.09
2022-11-21T16:34:07.625Z,77.11
2022-11-21T16:36:34.367Z,78.05
2022-11-21T16:39:09.972Z,78.95
2022-11-21T16:41:39.520Z,80.83
2022-11-21T16:44:12.566Z,82.33
2022-11-21T16:46:43.251Z,83.00
2022-11-21T16:49:10.518Z,83.52
2022-11-21T16:51:37.273Z,83.98
2022-11-21T16:54:08.574Z,84.15
2022-11-21T16:56:35.928Z,84.67
2022-11-21T16:59:02.528Z,85.71
2022-11-21T17:01:29.435Z,85.77
2022-11-21T17:03:56.121Z,85.37
2022-11-21T17:06:27.262Z,86.44
2022-11-21T17:08:54.060Z,85.49
2022-11-21T17:11:23.464Z,86.37
2022-11-21T17:13:51.349Z,86.67
2022-11-21T17:16:20.438Z,86.52
2022-11-21T17:18:47.714Z,86.15
2022-11-21T17:23:55.225Z,85.89
2022-11-21T17:26:25.170Z,86.21
2022-11-21T17:28:59.339Z,86.62
2022-11-21T17:31:26.852Z,86.90
2022-11-21T17:33:56.267Z,86.14
2022-11-21T17:36:25.094Z,85.81
2022-11-21T17:38:52.613Z,85.33
2022-11-21T17:41:21.067Z,84.49
2022-11-21T17:46:20.231Z,83.82
2022-11-21T17:48:54.607Z,84.01
2022-11-21T17:51:25.692Z,84.51
2022-11-21T17:53:52.947Z,84.68
2022-11-21T17:56:22.695Z,84.14
2022-11-21T17:58:50.724Z,82.96
2022-11-21T18:01:22.227Z,83.30
2022-11-21T18:06:38.173Z,85.96
2022-11-21T18:09:06.425Z,84.78
2022-11-21T18:11:39.592Z,84.56
2022-11-21T18:14:07.971Z,85.90
2022-11-21T18:16:34.718Z,84.23
2022-11-21T18:19:01.501Z,84.76
2022-11-21T18:21:33.247Z,84.73
2022-11-21T18:24:00.501Z,83.99
2022-11-21T18:26:29.756Z,84.47
2022-11-21T18:29:20.657Z,85.09
2022-11-21T18:31:45.605Z,84.30
2022-11-21T18:34:12.630Z,83.57
2022-11-21T18:36:39.338Z,83.72
2022-11-21T18:39:13.673Z,84.11
2022-11-21T18:41:41.865Z,84.47
2022-11-21T18:44:08.547Z,83.64
2022-11-21T18:46:37.393Z,83.56
2022-11-21T18:49:07.203Z,85.49
2022-11-21T18:51:35.676Z,84.21
2022-11-21T18:54:08.567Z,84.32
2022-11-21T18:56:36.610Z,83.24
2022-11-21T18:59:05.846Z,83.68
2022-11-21T19:01:33.225Z,83.60
2022-11-21T19:04:00.155Z,82.75
2022-11-21T19:06:27.860Z,82.13
2022-11-21T19:08:57.293Z,82.33
2022-11-21T19:11:27.622Z,83.37
2022-11-21T19:13:56.285Z,82.60
2022-11-21T19:16:25.150Z,80.82
2022-11-21T19:21:41.786Z,81.66
2022-11-21T19:24:13.587Z,80.05
2022-11-21T19:26:40.965Z,80.32
2022-11-21T19:29:07.777Z,80.11
2022-11-21T19:31:37.871Z,80.07
2022-11-21T19:34:09.540Z,79.46
2022-11-21T19:36:36.753Z,79.60
2022-11-21T19:39:03.428Z,79.14
2022-11-21T19:41:30.899Z,78.94
2022-11-21T19:43:59.524Z,79.49
2022-11-21T19:46:27.335Z,79.17
2022-11-21T19:48:56.078Z,79.44
2022-11-21T19:53:59.214Z,79.34
2022-11-21T19:56:26.679Z,79.79
2022-11-21T19:58:56.177Z,79.69
2022-11-21T20:01:25.076Z,79.88
2022-11-21T20:03:54.786Z,79.48
2022-11-21T20:06:24.189Z,80.24
2022-11-21T20:08:51.986Z,79.60
2022-11-21T20:11:18.818Z,78.60
2022-11-21T20:13:45.798Z,78.34
2022-11-21T20:16:24.208Z,79.21
2022-11-21T20:18:52.404Z,79.25
2022-11-21T20:23:51.292Z,80.67
2022-11-21T20:26:19.464Z,79.91
2022-11-21T20:28:46.715Z,80.07
2022-11-21T20:31:19.563Z,80.42
2022-11-21T20:33:48.727Z,79.99
2022-11-21T20:36:21.049Z,79.64
2022-11-21T20:41:26.129Z,81.61
2022-11-21T20:49:22.635Z,82.39
2022-11-21T20:53:26.413Z,79.98
2022-11-21T20:54:38.148Z,82.23
2022-11-21T20:57:04.789Z,81.09
2022-11-21T20:59:31.722Z,82.03
2022-11-21T21:01:58.763Z,81.09
2022-11-21T21:04:25.424Z,80.81
2022-11-21T21:09:30.822Z,82.27
2022-11-21T21:11:57.647Z,81.93
2022-11-21T21:16:55.827Z,81.96
2022-11-21T21:21:53.928Z,82.46
2022-11-21T21:26:51.884Z,82.75
2022-11-21T21:29:20.557Z,83.67
2022-11-21T21:31:51.684Z,83.53
2022-11-21T21:36:51.628Z,83.27
2022-11-21T21:39:18.749Z,83.65
2022-11-21T21:44:27.039Z,84.66
2022-11-21T21:46:56.666Z,84.38
2022-11-21T21:49:24.200Z,84.86
2022-11-21T21:51:50.950Z,83.76
2022-11-21T21:54:20.675Z,83.48
2022-11-21T21:56:48.133Z,82.66
2022-11-21T21:59:15.117Z,83.72
2022-11-21T22:01:42.982Z,82.21
2022-11-21T22:04:11.862Z,81.78
2022-11-21T22:06:38.473Z,81.81
2022-11-21T22:09:05.191Z,82.30
2022-11-21T22:11:35.830Z,79.13
2022-11-21T22:14:07.777Z,79.76
2022-11-21T22:16:34.410Z,79.42
2022-11-21T22:19:01.117Z,79.66
2022-11-21T22:21:32.973Z,79.07
2022-11-21T22:26:48.026Z,79.35
2022-11-21T22:29:14.771Z,79.18
2022-11-21T22:31:41.544Z,79.26
2022-11-21T22:34:11.812Z,80.60
2022-11-21T22:36:38.568Z,80.53
2022-11-21T22:41:42.195Z,82.49
2022-11-21T22:44:08.942Z,81.25
2022-11-21T22:46:35.597Z,80.99
2022-11-21T22:49:02.193Z,81.92
2022-11-21T22:51:29.873Z,81.47
2022-11-21T22:53:57.109Z,80.89
2022-11-21T22:56:24.880Z,81.03
2022-11-21T22:58:51.984Z,79.87
2022-11-21T23:01:24.104Z,81.27
2022-11-21T23:03:51.370Z,82.19
2022-11-21T23:06:26.301Z,80.99
2022-11-21T23:08:54.483Z,82.81
2022-11-21T23:11:27.822Z,83.21
2022-11-21T23:13:56.183Z,83.57
2022-11-21T23:16:22.991Z,84.16
2022-11-21T23:18:52.497Z,84.81
2022-11-21T23:21:19.100Z,84.45
2022-11-21T23:23:45.780Z,84.89
2022-11-21T23:26:13.837Z,85.14
2022-11-21T23:28:40.472Z,85.59
2022-11-21T23:31:07.129Z,87.66
2022-11-21T23:33:33.739Z,87.98
2022-11-21T23:36:00.556Z,88.21
2022-11-21T23:38:27.215Z,87.99
2022-11-21T23:40:53.904Z,88.87
2022-11-21T23:46:04.274Z,89.63
2022-11-21T23:51:02.386Z,90.72
2022-11-21T23:53:29.177Z,93.27
2022-11-21T23:55:55.816Z,95.73
2022-11-21T23:58:22.462Z,93.19
